sensor_id;sensor_type;location;lat;lon;timestamp;pressure;altitude;pressure_sealevel;temperature;humidity
72585;BME280;60618;40.084;32.908;2022-12-07T00:01:15;89728.47;;;1.56;71.02
72585;BME280;60618;40.084;32.908;2022-12-07T00:03:44;89726.81;;;1.78;69.28
72585;BME280;60618;40.084;32.908;2022-12-07T00:06:13;89726.75;;;1.65;69.98
72585;BME280;60618;40.084;32.908;2022-12-07T00:08:40;89728.81;;;1.74;69.37
72585;BME280;60618;40.084;32.908;2022-12-07T00:11:18;89724.88;;;1.82;68.83
72585;BME280;60618;40.084;32.908;2022-12-07T00:13:46;89720.13;;;2.06;67.91
72585;BME280;60618;40.084;32.908;2022-12-07T00:16:19;89728.47;;;2.34;66.78
72585;BME280;60618;40.084;32.908;2022-12-07T00:18:47;89724.44;;;2.45;66.47
72585;BME280;60618;40.084;32.908;2022-12-07T00:21:26;89726.22;;;2.48;66.02
72585;BME280;60618;40.084;32.908;2022-12-07T00:23:54;89741.91;;;2.52;66.14
72585;BME280;60618;40.084;32.908;2022-12-07T00:26:29;89737.69;;;2.54;66.07
72585;BME280;60618;40.084;32.908;2022-12-07T00:29:00;89745.31;;;2.36;66.69
72585;BME280;60618;40.084;32.908;2022-12-07T00:31:30;89741.53;;;2.37;66.43
72585;BME280;60618;40.084;32.908;2022-12-07T00:33:57;89734.53;;;2.47;66.34
72585;BME280;60618;40.084;32.908;2022-12-07T00:36:25;89738.94;;;2.50;66.19
72585;BME280;60618;40.084;32.908;2022-12-07T00:38:58;89732.13;;;2.52;65.96
72585;BME280;60618;40.084;32.908;2022-12-07T00:41:26;89733.41;;;2.61;65.56
72585;BME280;60618;40.084;32.908;2022-12-07T00:43:54;89734.16;;;2.61;65.56
72585;BME280;60618;40.084;32.908;2022-12-07T00:46:21;89727.19;;;2.54;65.94
72585;BME280;60618;40.084;32.908;2022-12-07T00:48:48;89723.38;;;2.43;66.32
72585;BME280;60618;40.084;32.908;2022-12-07T00:51:17;89729.56;;;2.49;65.93
72585;BME280;60618;40.084;32.908;2022-12-07T00:53:45;89730.31;;;2.49;65.82
72585;BME280;60618;40.084;32.908;2022-12-07T00:56:17;89728.16;;;2.61;65.56
72585;BME280;60618;40.084;32.908;2022-12-07T00:58:49;89723.22;;;2.63;65.59
72585;BME280;60618;40.084;32.908;2022-12-07T01:01:17;89719.75;;;2.66;65.20
72585;BME280;60618;40.084;32.908;2022-12-07T01:03:44;89721.47;;;2.72;65.13
72585;BME280;60618;40.084;32.908;2022-12-07T01:06:14;89726.28;;;2.74;65.05
72585;BME280;60618;40.084;32.908;2022-12-07T01:08:42;89731.66;;;2.70;65.11
72585;BME280;60618;40.084;32.908;2022-12-07T01:11:13;89726.19;;;2.36;66.74
72585;BME280;60618;40.084;32.908;2022-12-07T01:13:41;89725.63;;;2.12;67.57
72585;BME280;60618;40.084;32.908;2022-12-07T01:16:11;89719.94;;;1.84;68.18
72585;BME280;60618;40.084;32.908;2022-12-07T01:18:38;89715.00;;;1.86;68.14
72585;BME280;60618;40.084;32.908;2022-12-07T01:21:09;89715.84;;;1.67;69.24
72585;BME280;60618;40.084;32.908;2022-12-07T01:23:37;89719.03;;;1.58;69.67
72585;BME280;60618;40.084;32.908;2022-12-07T01:26:07;89722.25;;;1.66;68.97
72585;BME280;60618;40.084;32.908;2022-12-07T01:28:36;89721.50;;;1.82;68.63
72585;BME280;60618;40.084;32.908;2022-12-07T01:31:11;89727.41;;;1.69;69.22
72585;BME280;60618;40.084;32.908;2022-12-07T01:33:39;89729.78;;;1.64;68.97
72585;BME280;60618;40.084;32.908;2022-12-07T01:36:07;89721.22;;;1.43;70.00
72585;BME280;60618;40.084;32.908;2022-12-07T01:38:34;89720.25;;;1.37;70.65
72585;BME280;60618;40.084;32.908;2022-12-07T01:41:02;89727.88;;;1.48;70.15
72585;BME280;60618;40.084;32.908;2022-12-07T01:43:30;89725.56;;;1.34;71.29
72585;BME280;60618;40.084;32.908;2022-12-07T01:45:57;89726.72;;;1.33;71.48
72585;BME280;60618;40.084;32.908;2022-12-07T01:51:03;89724.41;;;1.19;71.69
72585;BME280;60618;40.084;32.908;2022-12-07T01:53:33;89716.31;;;1.29;71.40
72585;BME280;60618;40.084;32.908;2022-12-07T01:56:03;89717.28;;;1.19;72.58
72585;BME280;60618;40.084;32.908;2022-12-07T01:58:30;89716.63;;;1.15;72.08
72585;BME280;60618;40.084;32.908;2022-12-07T02:00:57;89718.06;;;1.36;70.93
72585;BME280;60618;40.084;32.908;2022-12-07T02:03:36;89710.41;;;1.58;70.04
72585;BME280;60618;40.084;32.908;2022-12-07T02:06:05;89703.84;;;1.50;69.96
72585;BME280;60618;40.084;32.908;2022-12-07T02:08:33;89711.66;;;1.53;69.78
72585;BME280;60618;40.084;32.908;2022-12-07T02:11:02;89724.84;;;1.50;70.21
72585;BME280;60618;40.084;32.908;2022-12-07T02:13:31;89718.13;;;1.49;70.00
72585;BME280;60618;40.084;32.908;2022-12-07T02:19:04;89708.28;;;1.36;70.93
72585;BME280;60618;40.084;32.908;2022-12-07T02:27:02;89715.50;;;1.32;71.27
72585;BME280;60618;40.084;32.908;2022-12-07T02:32:20;89707.94;;;1.34;70.40
72585;BME280;60618;40.084;32.908;2022-12-07T02:34:55;89709.94;;;1.47;69.93
72585;BME280;60618;40.084;32.908;2022-12-07T02:37:43;89706.72;;;1.23;70.75
72585;BME280;60618;40.084;32.908;2022-12-07T02:42:51;89713.88;;;1.71;69.17
72585;BME280;60618;40.084;32.908;2022-12-07T02:45:22;89713.69;;;1.78;69.19
72585;BME280;60618;40.084;32.908;2022-12-07T02:47:53;89707.78;;;1.74;69.71
72585;BME280;60618;40.084;32.908;2022-12-07T02:50:22;89708.03;;;1.80;68.97
72585;BME280;60618;40.084;32.908;2022-12-07T02:52:49;89709.91;;;1.79;69.25
72585;BME280;60618;40.084;32.908;2022-12-07T02:55:20;89709.09;;;1.82;69.27
72585;BME280;60618;40.084;32.908;2022-12-07T02:58:14;89705.75;;;1.65;70.07
72585;BME280;60618;40.084;32.908;2022-12-07T03:01:12;89711.41;;;1.48;70.35
72585;BME280;60618;40.084;32.908;2022-12-07T03:03:48;89703.56;;;0.95;72.23
72585;BME280;60618;40.084;32.908;2022-12-07T03:06:31;89704.09;;;0.31;74.30
72585;BME280;60618;40.084;32.908;2022-12-07T03:09:28;89702.19;;;0.31;74.71
72585;BME280;60618;40.084;32.908;2022-12-07T03:12:12;89700.22;;;0.75;72.66
72585;BME280;60618;40.084;32.908;2022-12-07T03:14:57;89695.94;;;1.01;71.22
72585;BME280;60618;40.084;32.908;2022-12-07T03:17:30;89692.81;;;1.06;70.77
72585;BME280;60618;40.084;32.908;2022-12-07T03:20:02;89700.13;;;1.14;70.98
72585;BME280;60618;40.084;32.908;2022-12-07T03:22:32;89701.06;;;1.24;69.88
72585;BME280;60618;40.084;32.908;2022-12-07T03:25:06;89701.00;;;1.44;69.62
72585;BME280;60618;40.084;32.908;2022-12-07T03:27:49;89699.75;;;1.49;69.52
72585;BME280;60618;40.084;32.908;2022-12-07T03:30:21;89704.53;;;1.54;68.74
72585;BME280;60618;40.084;32.908;2022-12-07T03:35:36;89700.88;;;1.15;69.79
72585;BME280;60618;40.084;32.908;2022-12-07T03:38:19;89705.16;;;0.89;70.48
72585;BME280;60618;40.084;32.908;2022-12-07T03:40:54;89706.25;;;0.92;70.76
72585;BME280;60618;40.084;32.908;2022-12-07T03:43:25;89703.47;;;0.99;70.56
72585;BME280;60618;40.084;32.908;2022-12-07T03:46:11;89711.53;;;1.08;69.94
72585;BME280;60618;40.084;32.908;2022-12-07T03:51:28;89705.28;;;0.46;72.44
72585;BME280;60618;40.084;32.908;2022-12-07T03:54:05;89712.94;;;0.76;71.03
72585;BME280;60618;40.084;32.908;2022-12-07T03:56:35;89710.31;;;0.76;71.29
72585;BME280;60618;40.084;32.908;2022-12-07T03:59:02;89712.41;;;0.65;72.04
72585;BME280;60618;40.084;32.908;2022-12-07T04:01:29;89705.28;;;0.46;73.96
72585;BME280;60618;40.084;32.908;2022-12-07T04:03:56;89704.25;;;0.79;72.20
72585;BME280;60618;40.084;32.908;2022-12-07T04:06:23;89700.50;;;0.97;71.39
72585;BME280;60618;40.084;32.908;2022-12-07T04:08:49;89705.16;;;0.89;71.77
72585;BME280;60618;40.084;32.908;2022-12-07T04:11:16;89705.59;;;0.68;72.13
72585;BME280;60618;40.084;32.908;2022-12-07T04:13:43;89712.94;;;0.56;72.41
72585;BME280;60618;40.084;32.908;2022-12-07T04:16:10;89714.13;;;0.72;72.36
72585;BME280;60618;40.084;32.908;2022-12-07T04:18:37;89711.81;;;0.57;73.67
72585;BME280;60618;40.084;32.908;2022-12-07T04:21:04;89711.53;;;0.52;74.31
72585;BME280;60618;40.084;32.908;2022-12-07T04:23:30;89717.69;;;0.81;73.19
72585;BME280;60618;40.084;32.908;2022-12-07T04:25:57;89706.94;;;1.12;71.97
72585;BME280;60618;40.084;32.908;2022-12-07T04:28:24;89707.28;;;1.30;71.21
72585;BME280;60618;40.084;32.908;2022-12-07T04:30:51;89707.78;;;1.41;70.84
72585;BME280;60618;40.084;32.908;2022-12-07T04:33:18;89706.81;;;1.52;70.54
72585;BME280;60618;40.084;32.908;2022-12-07T04:35:45;89697.38;;;1.38;71.36
72585;BME280;60618;40.084;32.908;2022-12-07T04:38:12;89700.22;;;1.11;71.60
72585;BME280;60618;40.084;32.908;2022-12-07T04:40:39;89701.00;;;0.92;72.15
72585;BME280;60618;40.084;32.908;2022-12-07T04:43:05;89708.28;;;0.44;73.79
72585;BME280;60618;40.084;32.908;2022-12-07T04:45:32;89703.25;;;0.34;74.17
72585;BME280;60618;40.084;32.908;2022-12-07T04:47:59;89715.78;;;0.46;73.68
72585;BME280;60618;40.084;32.908;2022-12-07T04:50:26;89712.75;;;0.47;73.89
72585;BME280;60618;40.084;32.908;2022-12-07T04:52:53;89716.66;;;0.39;nan
72585;BME280;60618;40.084;32.908;2022-12-07T04:55:20;89710.13;;;0.47;73.83
72585;BME280;60618;40.084;32.908;2022-12-07T04:57:47;89713.34;;;0.55;73.15
72585;BME280;60618;40.084;32.908;2022-12-07T05:00:14;89701.25;;;0.61;73.46
72585;BME280;60618;40.084;32.908;2022-12-07T05:02:41;89714.84;;;0.56;74.10
72585;BME280;60618;40.084;32.908;2022-12-07T05:05:08;89713.19;;;0.62;73.50
72585;BME280;60618;40.084;32.908;2022-12-07T05:07:35;89709.28;;;0.70;73.03
72585;BME280;60618;40.084;32.908;2022-12-07T05:10:01;89707.88;;;0.85;72.38
72585;BME280;60618;40.084;32.908;2022-12-07T05:12:29;89713.28;;;0.59;73.16
72585;BME280;60618;40.084;32.908;2022-12-07T05:14:56;89719.78;;;0.70;73.42
72585;BME280;60618;40.084;32.908;2022-12-07T05:17:22;89718.63;;;0.71;73.28
72585;BME280;60618;40.084;32.908;2022-12-07T05:19:49;89721.25;;;0.71;73.81
72585;BME280;60618;40.084;32.908;2022-12-07T05:22:16;89725.69;;;0.74;74.11
72585;BME280;60618;40.084;32.908;2022-12-07T05:24:43;89720.31;;;0.81;73.50
72585;BME280;60618;40.084;32.908;2022-12-07T05:27:10;89724.13;;;0.97;73.27
72585;BME280;60618;40.084;32.908;2022-12-07T05:29:37;89725.53;;;1.01;73.03
72585;BME280;60618;40.084;32.908;2022-12-07T05:32:04;89724.44;;;0.99;72.80
72585;BME280;60618;40.084;32.908;2022-12-07T05:34:31;89728.50;;;0.83;73.68
72585;BME280;60618;40.084;32.908;2022-12-07T05:36:58;89727.81;;;0.63;74.00
72585;BME280;60618;40.084;32.908;2022-12-07T05:39:25;89736.19;;;0.54;74.22
72585;BME280;60618;40.084;32.908;2022-12-07T05:41:52;89732.34;;;0.39;74.94
72585;BME280;60618;40.084;32.908;2022-12-07T05:44:19;89738.25;;;0.43;75.25
72585;BME280;60618;40.084;32.908;2022-12-07T05:46:46;89738.81;;;0.54;nan
72585;BME280;60618;40.084;32.908;2022-12-07T05:49:12;89729.94;;;0.68;74.25
72585;BME280;60618;40.084;32.908;2022-12-07T05:51:40;89728.78;;;0.69;74.15
72585;BME280;60618;40.084;32.908;2022-12-07T05:54:07;89732.34;;;0.79;74.49
72585;BME280;60618;40.084;32.908;2022-12-07T05:56:34;89733.63;;;0.91;74.07
72585;BME280;60618;40.084;32.908;2022-12-07T05:59:01;89727.22;;;0.92;74.65
72585;BME280;60618;40.084;32.908;2022-12-07T06:01:28;89733.31;;;1.05;73.32
72585;BME280;60618;40.084;32.908;2022-12-07T06:03:55;89737.84;;;0.84;74.35
72585;BME280;60618;40.084;32.908;2022-12-07T06:06:22;89738.09;;;0.54;75.62
72585;BME280;60618;40.084;32.908;2022-12-07T06:08:49;89723.84;;;0.55;75.19
72585;BME280;60618;40.084;32.908;2022-12-07T06:11:16;89731.41;;;0.69;74.90
72585;BME280;60618;40.084;32.908;2022-12-07T06:13:43;89730.81;;;0.81;75.01
72585;BME280;60618;40.084;32.908;2022-12-07T06:16:13;89721.25;;;0.71;75.96
72585;BME280;60618;40.084;32.908;2022-12-07T06:18:41;89721.25;;;0.71;76.45
72585;BME280;60618;40.084;32.908;2022-12-07T06:21:08;89732.19;;;0.86;75.59
72585;BME280;60618;40.084;32.908;2022-12-07T06:23:35;89733.88;;;0.96;75.79
72585;BME280;60618;40.084;32.908;2022-12-07T06:26:02;89736.94;;;1.11;75.27
72585;BME280;60618;40.084;32.908;2022-12-07T06:28:28;89744.94;;;1.04;75.68
72585;BME280;60618;40.084;32.908;2022-12-07T06:31:00;89747.19;;;0.85;75.88
72585;BME280;60618;40.084;32.908;2022-12-07T06:33:28;89750.09;;;0.91;75.29
72585;BME280;60618;40.084;32.908;2022-12-07T06:35:55;89745.22;;;1.09;75.09
72585;BME280;60618;40.084;32.908;2022-12-07T06:38:22;89742.56;;;1.29;74.69
72585;BME280;60618;40.084;32.908;2022-12-07T06:40:49;89741.84;;;1.45;73.84
72585;BME280;60618;40.084;32.908;2022-12-07T06:43:16;89745.81;;;1.33;74.55
72585;BME280;60618;40.084;32.908;2022-12-07T06:45:43;89751.16;;;1.30;74.78
72585;BME280;60618;40.084;32.908;2022-12-07T06:48:09;89752.53;;;1.34;74.64
72585;BME280;60618;40.084;32.908;2022-12-07T06:50:37;89741.72;;;1.32;74.42
72585;BME280;60618;40.084;32.908;2022-12-07T06:53:04;89752.97;;;1.49;74.20
72585;BME280;60618;40.084;32.908;2022-12-07T06:55:31;89760.03;;;1.52;73.66
72585;BME280;60618;40.084;32.908;2022-12-07T06:57:57;89760.22;;;1.45;74.19
72585;BME280;60618;40.084;32.908;2022-12-07T07:00:24;89764.53;;;1.52;74.00
72585;BME280;60618;40.084;32.908;2022-12-07T07:02:51;89767.19;;;1.68;74.35
72585;BME280;60618;40.084;32.908;2022-12-07T07:05:18;89755.63;;;1.82;74.42
72585;BME280;60618;40.084;32.908;2022-12-07T07:07:45;89763.66;;;1.91;73.44
72585;BME280;60618;40.084;32.908;2022-12-07T07:10:32;89764.66;;;1.81;73.44
72585;BME280;60618;40.084;32.908;2022-12-07T07:12:59;89763.94;;;1.80;73.55
72585;BME280;60618;40.084;32.908;2022-12-07T07:15:26;89763.09;;;1.67;73.86
72585;BME280;60618;40.084;32.908;2022-12-07T07:17:53;89763.50;;;1.82;73.36
72585;BME280;60618;40.084;32.908;2022-12-07T07:20:20;89759.31;;;1.84;73.00
72585;BME280;60618;40.084;32.908;2022-12-07T07:22:47;89753.75;;;1.98;72.80
72585;BME280;60618;40.084;32.908;2022-12-07T07:25:15;89764.22;;;2.15;72.58
72585;BME280;60618;40.084;32.908;2022-12-07T07:27:42;89755.09;;;2.36;72.43
72585;BME280;60618;40.084;32.908;2022-12-07T07:30:09;89757.75;;;2.48;72.18
72585;BME280;60618;40.084;32.908;2022-12-07T07:32:36;89762.53;;;2.53;71.59
72585;BME280;60618;40.084;32.908;2022-12-07T07:35:03;89760.34;;;2.65;71.86
72585;BME280;60618;40.084;32.908;2022-12-07T07:37:30;89757.75;;;2.77;71.19
72585;BME280;60618;40.084;32.908;2022-12-07T07:39:57;89769.25;;;2.96;70.68
72585;BME280;60618;40.084;32.908;2022-12-07T07:42:24;89760.88;;;3.01;70.69
72585;BME280;60618;40.084;32.908;2022-12-07T07:44:51;89766.69;;;3.09;70.18
72585;BME280;60618;40.084;32.908;2022-12-07T07:47:18;89760.25;;;3.23;70.08
72585;BME280;60618;40.084;32.908;2022-12-07T07:49:45;89760.09;;;3.42;69.09
72585;BME280;60618;40.084;32.908;2022-12-07T07:52:13;89767.56;;;3.57;68.73
72585;BME280;60618;40.084;32.908;2022-12-07T07:54:40;89760.59;;;3.50;68.82
72585;BME280;60618;40.084;32.908;2022-12-07T07:57:07;89759.97;;;3.59;68.18
72585;BME280;60618;40.084;32.908;2022-12-07T07:59:34;89757.25;;;3.62;68.49
72585;BME280;60618;40.084;32.908;2022-12-07T08:02:01;89750.72;;;3.67;68.51
72585;BME280;60618;40.084;32.908;2022-12-07T08:04:28;89759.25;;;3.84;67.75
72585;BME280;60618;40.084;32.908;2022-12-07T08:06:56;89747.53;;;3.85;67.22
72585;BME280;60618;40.084;32.908;2022-12-07T08:09:23;89748.19;;;3.76;67.68
72585;BME280;60618;40.084;32.908;2022-12-07T08:11:50;89745.75;;;3.56;67.96
72585;BME280;60618;40.084;32.908;2022-12-07T08:14:17;89746.81;;;3.46;69.10
72585;BME280;60618;40.084;32.908;2022-12-07T08:16:44;89741.97;;;3.57;68.79
72585;BME280;60618;40.084;32.908;2022-12-07T08:19:11;89747.69;;;3.68;68.70
72585;BME280;60618;40.084;32.908;2022-12-07T08:21:37;89744.72;;;3.66;69.01
72585;BME280;60618;40.084;32.908;2022-12-07T08:24:05;89742.47;;;4.03;67.99
72585;BME280;60618;40.084;32.908;2022-12-07T08:26:32;89738.38;;;4.37;67.55
72585;BME280;60618;40.084;32.908;2022-12-07T08:28:58;89741.59;;;4.53;66.41
72585;BME280;60618;40.084;32.908;2022-12-07T08:31:25;89739.09;;;4.50;66.84
72585;BME280;60618;40.084;32.908;2022-12-07T08:33:53;89731.72;;;4.45;66.70
72585;BME280;60618;40.084;32.908;2022-12-07T08:36:20;89737.22;;;4.38;67.13
72585;BME280;60618;40.084;32.908;2022-12-07T08:38:47;89736.53;;;4.24;66.68
72585;BME280;60618;40.084;32.908;2022-12-07T08:41:33;89727.63;;;4.31;66.23
72585;BME280;60618;40.084;32.908;2022-12-07T08:44:00;89733.09;;;4.37;66.59
72585;BME280;60618;40.084;32.908;2022-12-07T08:46:38;89722.88;;;4.39;66.11
72585;BME280;60618;40.084;32.908;2022-12-07T08:51:39;89713.13;;;4.92;64.90
72585;BME280;60618;40.084;32.908;2022-12-07T08:54:08;89717.00;;;5.22;63.99
72585;BME280;60618;40.084;32.908;2022-12-07T08:56:35;89701.16;;;5.22;62.67
72585;BME280;60618;40.084;32.908;2022-12-07T08:59:04;89705.03;;;5.08;62.75
72585;BME280;60618;40.084;32.908;2022-12-07T09:01:31;89704.91;;;4.90;63.56
72585;BME280;60618;40.084;32.908;2022-12-07T09:03:58;89712.34;;;5.04;62.63
72585;BME280;60618;40.084;32.908;2022-12-07T09:06:25;89710.44;;;5.05;63.58
72585;BME280;60618;40.084;32.908;2022-12-07T09:08:55;89698.22;;;4.98;62.82
72585;BME280;60618;40.084;32.908;2022-12-07T09:11:23;89700.63;;;5.05;62.89
72585;BME280;60618;40.084;32.908;2022-12-07T09:13:54;89700.19;;;5.07;63.34
72585;BME280;60618;40.084;32.908;2022-12-07T09:16:21;89701.69;;;5.17;62.70
72585;BME280;60618;40.084;32.908;2022-12-07T09:18:49;89691.09;;;5.08;62.83
72585;BME280;60618;40.084;32.908;2022-12-07T09:21:15;89685.22;;;5.04;62.32
72585;BME280;60618;40.084;32.908;2022-12-07T09:23:42;89688.94;;;5.16;62.87
72585;BME280;60618;40.084;32.908;2022-12-07T09:26:09;89688.31;;;5.43;62.05
72585;BME280;60618;40.084;32.908;2022-12-07T09:28:37;89686.34;;;5.65;60.54
72585;BME280;60618;40.084;32.908;2022-12-07T09:31:04;89682.00;;;5.89;60.15
72585;BME280;60618;40.084;32.908;2022-12-07T09:34:00;89678.97;;;6.00;59.82
72585;BME280;60618;40.084;32.908;2022-12-07T09:36:28;89676.78;;;6.17;59.33
72585;BME280;60618;40.084;32.908;2022-12-07T09:38:55;89678.59;;;6.29;59.43
72585;BME280;60618;40.084;32.908;2022-12-07T09:41:24;89678.44;;;6.60;58.09
72585;BME280;60618;40.084;32.908;2022-12-07T09:43:53;89669.59;;;6.63;57.84
72585;BME280;60618;40.084;32.908;2022-12-07T09:46:24;89661.81;;;6.60;58.34
72585;BME280;60618;40.084;32.908;2022-12-07T09:48:52;89660.19;;;6.53;58.26
72585;BME280;60618;40.084;32.908;2022-12-07T09:51:21;89656.69;;;6.65;57.76
72585;BME280;60618;40.084;32.908;2022-12-07T09:53:52;89649.16;;;6.64;57.74
72585;BME280;60618;40.084;32.908;2022-12-07T09:56:20;89651.34;;;6.93;57.97
72585;BME280;60618;40.084;32.908;2022-12-07T09:58:49;89648.13;;;6.79;57.22
72585;BME280;60618;40.084;32.908;2022-12-07T10:01:18;89640.28;;;7.03;58.00
72585;BME280;60618;40.084;32.908;2022-12-07T10:04:01;89634.25;;;7.03;57.34
72585;BME280;60618;40.084;32.908;2022-12-07T10:06:29;89637.00;;;7.18;56.81
72585;BME280;60618;40.084;32.908;2022-12-07T10:08:55;89632.09;;;7.34;57.16
72585;BME280;60618;40.084;32.908;2022-12-07T10:11:22;89636.69;;;7.25;55.73
72585;BME280;60618;40.084;32.908;2022-12-07T10:13:52;89624.47;;;7.60;55.38
72585;BME280;60618;40.084;32.908;2022-12-07T10:19:18;89619.91;;;7.19;56.30
72585;BME280;60618;40.084;32.908;2022-12-07T10:22:09;89622.78;;;7.48;55.98
72585;BME280;60618;40.084;32.908;2022-12-07T10:24:36;89616.78;;;7.62;55.49
72585;BME280;60618;40.084;32.908;2022-12-07T10:27:03;89617.22;;;7.94;54.70
72585;BME280;60618;40.084;32.908;2022-12-07T10:29:36;89613.50;;;7.77;55.18
72585;BME280;60618;40.084;32.908;2022-12-07T10:32:23;89613.63;;;7.49;55.68
72585;BME280;60618;40.084;32.908;2022-12-07T10:35:20;89606.91;;;7.39;55.71
72585;BME280;60618;40.084;32.908;2022-12-07T10:37:49;89605.84;;;7.46;56.67
72585;BME280;60618;40.084;32.908;2022-12-07T10:40:31;89598.41;;;7.59;56.00
72585;BME280;60618;40.084;32.908;2022-12-07T10:43:05;89607.22;;;7.65;55.62
72585;BME280;60618;40.084;32.908;2022-12-07T10:45:32;89605.09;;;7.78;55.71
72585;BME280;60618;40.084;32.908;2022-12-07T10:51:14;89603.00;;;8.06;55.14
72585;BME280;60618;40.084;32.908;2022-12-07T10:59:19;89593.81;;;8.70;54.90
72585;BME280;60618;40.084;32.908;2022-12-07T11:02:03;89592.81;;;8.97;52.83
72585;BME280;60618;40.084;32.908;2022-12-07T11:18:59;89578.53;;;8.65;53.91
72585;BME280;60618;40.084;32.908;2022-12-07T11:21:40;89575.22;;;8.70;53.67
72585;BME280;60618;40.084;32.908;2022-12-07T11:24:18;89576.53;;;8.74;53.91
72585;BME280;60618;40.084;32.908;2022-12-07T11:32:43;89572.13;;;9.01;52.46
72585;BME280;60618;40.084;32.908;2022-12-07T11:41:12;89579.25;;;8.36;54.71
72585;BME280;60618;40.084;32.908;2022-12-07T11:46:20;89572.69;;;8.22;55.73
72585;BME280;60618;40.084;32.908;2022-12-07T11:49:02;89578.31;;;8.39;55.67
72585;BME280;60618;40.084;32.908;2022-12-07T11:51:34;89575.31;;;8.46;54.75
72585;BME280;60618;40.084;32.908;2022-12-07T11:54:18;89573.69;;;8.63;54.92
72585;BME280;60618;40.084;32.908;2022-12-07T11:56:48;89581.34;;;8.61;54.39
72585;BME280;60618;40.084;32.908;2022-12-07T11:59:22;89572.66;;;8.61;54.75
72585;BME280;60618;40.084;32.908;2022-12-07T12:01:56;89569.56;;;8.77;54.98
72585;BME280;60618;40.084;32.908;2022-12-07T12:05:21;89573.50;;;8.67;54.42
72585;BME280;60618;40.084;32.908;2022-12-07T12:07:24;89570.16;;;8.42;54.54
72585;BME280;60618;40.084;32.908;2022-12-07T12:10:26;89567.44;;;8.51;54.25
72585;BME280;60618;40.084;32.908;2022-12-07T12:21:15;89563.00;;;8.34;56.02
72585;BME280;60618;40.084;32.908;2022-12-07T12:23:48;89566.91;;;8.23;55.83
72585;BME280;60618;40.084;32.908;2022-12-07T12:26:36;89564.13;;;8.03;56.20
72585;BME280;60618;40.084;32.908;2022-12-07T12:29:15;89562.72;;;7.93;56.41
72585;BME280;60618;40.084;32.908;2022-12-07T12:31:48;89554.19;;;7.89;56.77
72585;BME280;60618;40.084;32.908;2022-12-07T12:34:57;89557.09;;;8.00;56.72
72585;BME280;60618;40.084;32.908;2022-12-07T12:42:46;89557.72;;;8.48;55.92
72585;BME280;60618;40.084;32.908;2022-12-07T12:45:31;89557.19;;;8.59;55.63
72585;BME280;60618;40.084;32.908;2022-12-07T12:50:34;89555.19;;;8.84;54.83
72585;BME280;60618;40.084;32.908;2022-12-07T12:53:23;89562.78;;;8.76;55.89
72585;BME280;60618;40.084;32.908;2022-12-07T12:56:25;89563.97;;;8.60;55.20
72585;BME280;60618;40.084;32.908;2022-12-07T13:02:15;89562.03;;;8.46;55.84
72585;BME280;60618;40.084;32.908;2022-12-07T13:15:52;89559.75;;;8.39;56.39
72585;BME280;60618;40.084;32.908;2022-12-07T13:31:47;89572.13;;;7.70;58.56
72585;BME280;60618;40.084;32.908;2022-12-07T13:34:34;89567.91;;;7.63;58.99
72585;BME280;60618;40.084;32.908;2022-12-07T13:39:45;89573.66;;;7.62;58.85
72585;BME280;60618;40.084;32.908;2022-12-07T13:42:27;89570.50;;;7.73;59.08
72585;BME280;60618;40.084;32.908;2022-12-07T13:44:55;89573.16;;;7.73;58.97
72585;BME280;60618;40.084;32.908;2022-12-07T13:49:56;89569.44;;;7.79;58.56
72585;BME280;60618;40.084;32.908;2022-12-07T13:52:28;89575.06;;;7.72;58.67
72585;BME280;60618;40.084;32.908;2022-12-07T13:54:58;89571.91;;;7.59;59.12
72585;BME280;60618;40.084;32.908;2022-12-07T13:57:28;89577.03;;;7.62;59.43
72585;BME280;60618;40.084;32.908;2022-12-07T13:59:55;89568.88;;;7.75;58.90
72585;BME280;60618;40.084;32.908;2022-12-07T14:02:28;89566.72;;;8.12;57.66
72585;BME280;60618;40.084;32.908;2022-12-07T14:07:57;89562.72;;;7.93;58.40
72585;BME280;60618;40.084;32.908;2022-12-07T14:13:03;89562.22;;;7.80;58.36
72585;BME280;60618;40.084;32.908;2022-12-07T14:15:50;89564.88;;;7.80;58.15
72585;BME280;60618;40.084;32.908;2022-12-07T14:18:27;89567.44;;;7.89;58.78
72585;BME280;60618;40.084;32.908;2022-12-07T14:23:38;89556.16;;;8.03;57.67
72585;BME280;60618;40.084;32.908;2022-12-07T14:26:14;89555.81;;;8.10;57.68
72585;BME280;60618;40.084;32.908;2022-12-07T14:28:43;89555.97;;;8.07;57.61
72585;BME280;60618;40.084;32.908;2022-12-07T14:31:18;89557.34;;;8.02;57.70
72585;BME280;60618;40.084;32.908;2022-12-07T14:33:59;89559.88;;;7.96;57.34
72585;BME280;60618;40.084;32.908;2022-12-07T14:36:26;89560.97;;;7.90;58.00
72585;BME280;60618;40.084;32.908;2022-12-07T14:38:53;89564.25;;;7.85;58.22
72585;BME280;60618;40.084;32.908;2022-12-07T14:41:21;89565.44;;;7.84;58.63
72585;BME280;60618;40.084;32.908;2022-12-07T14:43:49;89568.88;;;7.75;58.34
72585;BME280;60618;40.084;32.908;2022-12-07T14:46:36;89568.75;;;7.69;58.24
72585;BME280;60618;40.084;32.908;2022-12-07T14:49:04;89565.09;;;7.67;59.00
72585;BME280;60618;40.084;32.908;2022-12-07T14:51:51;89560.88;;;7.60;58.65
72585;BME280;60618;40.084;32.908;2022-12-07T14:54:38;89563.09;;;7.53;58.60
72585;BME280;60618;40.084;32.908;2022-12-07T14:57:06;89571.34;;;7.55;58.80
72585;BME280;60618;40.084;32.908;2022-12-07T14:59:34;89570.59;;;7.54;59.09
72585;BME280;60618;40.084;32.908;2022-12-07T15:02:10;89565.97;;;7.40;59.43
72585;BME280;60618;40.084;32.908;2022-12-07T15:04:37;89572.19;;;7.37;58.96
72585;BME280;60618;40.084;32.908;2022-12-07T15:07:08;89568.97;;;7.33;59.65
72585;BME280;60618;40.084;32.908;2022-12-07T15:09:36;89562.19;;;7.32;59.61
72585;BME280;60618;40.084;32.908;2022-12-07T15:12:03;89560.28;;;7.32;59.24
72585;BME280;60618;40.084;32.908;2022-12-07T15:14:30;89567.50;;;7.32;59.25
72585;BME280;60618;40.084;32.908;2022-12-07T15:16:57;89568.22;;;7.32;59.25
72585;BME280;60618;40.084;32.908;2022-12-07T15:19:43;89566.34;;;7.24;59.83
72585;BME280;60618;40.084;32.908;2022-12-07T15:22:10;89570.97;;;7.14;59.91